Las Palmas, Spain
Current Conditions -  °F | °C
As of 9:30 PM on Friday 24 Oct 2014 (Local Time) from GCLP Reporting Station
Few Clouds Few Clouds  
Wind Chill: 24°   Ceiling: Unl
Heat Index: 24°   Visibility: 6mi
Dew Point: 22°   Wind: 8mph
Humidity: 89%   Direction: 20°NNE
Pressure: 30"   Gusts: NA
Location:  28.12°N, 15.43°W
Report Text: GCLP 242030Z 02007KT 9999 FEW005 24/22 Q1016 NOSIG
Loading
Personal Weather Stations






























Interactive Weather Map
Tropical Storm Tracking
New forecast layout! Learn more

10-Day Weather Forecast

Advertisements
Track Severe Weather on mobile